createdAt,value
2022-08-04T00:02:51.548Z,2.97
2022-08-04T00:05:30.259Z,3.10
2022-08-04T00:08:10.758Z,3.03
2022-08-04T00:10:39.980Z,3.25
2022-08-04T00:13:08.828Z,3.37
2022-08-04T00:15:37.207Z,3.20
2022-08-04T00:18:07.797Z,3.15
2022-08-04T00:20:38.178Z,3.17
2022-08-04T00:23:06.727Z,3.00
2022-08-04T00:25:33.698Z,2.65
2022-08-04T00:28:01.198Z,2.35
2022-08-04T00:30:28.578Z,2.78
2022-08-04T00:32:57.265Z,3.10
2022-08-04T00:35:24.500Z,4.67
2022-08-04T00:37:52.428Z,3.35
2022-08-04T00:40:34.009Z,3.33
2022-08-04T00:43:11.207Z,3.12
2022-08-04T00:46:23.017Z,2.92
2022-08-04T00:49:03.134Z,2.97
2022-08-04T00:51:42.480Z,3.65
2022-08-04T00:54:20.758Z,4.47
2022-08-04T00:57:02.747Z,2.40
2022-08-04T01:00:05.660Z,3.20
2022-08-04T01:02:59.263Z,3.40
2022-08-04T01:05:38.361Z,3.20
2022-08-04T01:08:29.958Z,3.10
2022-08-04T01:11:06.699Z,2.78
2022-08-04T01:14:04.307Z,2.40
2022-08-04T01:16:35.379Z,2.90
2022-08-04T01:19:23.158Z,2.97
2022-08-04T01:22:26.285Z,2.50
2022-08-04T01:25:04.610Z,2.92
2022-08-04T01:28:10.778Z,2.72
2022-08-04T01:30:42.748Z,2.90
2022-08-04T01:33:14.458Z,3.15
2022-08-04T01:36:13.501Z,2.58
2022-08-04T01:38:41.177Z,3.42
2022-08-04T01:41:10.385Z,3.37
2022-08-04T01:43:43.637Z,2.47
2022-08-04T01:46:16.473Z,2.85
2022-08-04T01:48:46.108Z,3.05
2022-08-04T01:53:42.407Z,2.55
2022-08-04T01:56:11.127Z,3.05
2022-08-04T01:58:39.687Z,2.75
2022-08-04T02:01:12.185Z,2.78
2022-08-04T02:04:18.089Z,3.37
2022-08-04T02:06:38.409Z,3.22
2022-08-04T02:09:15.398Z,3.10
2022-08-04T02:11:49.738Z,3.20
2022-08-04T02:14:43.307Z,3.12
2022-08-04T02:17:14.249Z,3.97
2022-08-04T02:20:02.647Z,3.85
2022-08-04T02:22:33.457Z,3.30
2022-08-04T02:25:11.229Z,3.20
2022-08-04T02:28:00.148Z,3.12
2022-08-04T02:30:34.438Z,3.58
2022-08-04T02:33:04.203Z,3.45
2022-08-04T02:35:35.927Z,3.30
2022-08-04T02:38:25.500Z,2.83
2022-08-04T02:40:55.464Z,3.50
2022-08-04T02:43:51.981Z,3.37
2022-08-04T02:46:18.040Z,6.25
2022-08-04T02:48:47.158Z,5.57
2022-08-04T02:51:16.806Z,4.63
2022-08-04T02:53:45.697Z,3.72
2022-08-04T02:56:15.707Z,4.00
2022-08-04T02:58:45.467Z,3.90
2022-08-04T03:01:12.283Z,3.53
2022-08-04T03:03:46.838Z,3.40
2022-08-04T03:06:48.837Z,4.43
2022-08-04T03:09:35.126Z,5.22
2022-08-04T03:12:17.518Z,4.05
2022-08-04T03:15:08.508Z,3.78
2022-08-04T03:17:59.709Z,3.83
2022-08-04T03:20:48.177Z,3.47
2022-08-04T03:23:17.930Z,3.58
2022-08-04T03:26:06.637Z,3.40
2022-08-04T03:29:00.809Z,4.12
2022-08-04T03:31:39.497Z,5.03
2022-08-04T03:34:41.419Z,3.80
2022-08-04T03:37:26.177Z,3.65
2022-08-04T03:40:10.891Z,4.30
2022-08-04T03:43:07.386Z,4.55
2022-08-04T03:46:02.078Z,4.05
2022-08-04T03:49:05.819Z,3.97
2022-08-04T03:52:23.818Z,3.83
2022-08-04T03:54:53.527Z,3.80
2022-08-04T04:00:15.929Z,4.45
2022-08-04T04:03:28.122Z,5.28
2022-08-04T04:06:17.857Z,4.00
2022-08-04T04:08:58.583Z,3.95
2022-08-04T04:11:58.217Z,6.10
2022-08-04T04:14:52.936Z,4.03
2022-08-04T04:18:01.068Z,4.78
2022-08-04T04:20:33.898Z,3.50
2022-08-04T04:23:27.017Z,3.85
2022-08-04T04:26:45.437Z,4.30
2022-08-04T04:29:18.807Z,4.28
2022-08-04T04:35:02.182Z,3.67
2022-08-04T04:37:59.478Z,4.28
2022-08-04T04:40:34.308Z,3.30
2022-08-04T04:43:13.907Z,4.00
2022-08-04T04:48:48.687Z,2.83
2022-08-04T04:51:52.236Z,3.85
2022-08-04T04:54:44.962Z,2.85
2022-08-04T04:57:53.286Z,3.20
2022-08-04T05:00:13.825Z,4.55
2022-08-04T05:03:06.020Z,4.75
2022-08-04T05:06:15.341Z,5.53
2022-08-04T05:09:06.637Z,4.07
2022-08-04T05:14:30.984Z,4.40
2022-08-04T05:14:58.599Z,3.62
2022-08-04T05:17:35.515Z,5.18
2022-08-04T05:20:15.103Z,4.40
2022-08-04T05:23:09.375Z,4.55
2022-08-04T05:25:41.295Z,3.28
2022-08-04T05:28:20.930Z,3.55
2022-08-04T05:30:51.718Z,4.20
2022-08-04T05:33:29.267Z,4.12
2022-08-04T05:36:18.397Z,4.55
2022-08-04T05:38:51.530Z,4.07
2022-08-04T05:41:19.364Z,3.60
2022-08-04T05:43:48.857Z,6.10
2022-08-04T05:46:17.505Z,5.95
2022-08-04T05:48:46.032Z,4.50
2022-08-04T05:51:14.245Z,3.75
2022-08-04T05:53:44.476Z,3.00
2022-08-04T05:56:14.039Z,3.37
2022-08-04T05:58:41.978Z,2.80
2022-08-04T06:01:10.887Z,4.30
2022-08-04T06:03:40.375Z,4.45
2022-08-04T06:06:08.243Z,3.62
2022-08-04T06:08:35.106Z,3.12
2022-08-04T06:11:05.668Z,3.28
2022-08-04T06:13:48.919Z,3.67
2022-08-04T06:16:29.643Z,4.28
2022-08-04T06:20:00.314Z,3.55
2022-08-04T06:21:51.205Z,4.37
2022-08-04T06:24:52.935Z,4.32
2022-08-04T06:27:20.717Z,4.12
2022-08-04T06:29:51.811Z,3.97
2022-08-04T06:32:40.058Z,3.80
2022-08-04T06:35:10.263Z,3.20
2022-08-04T06:37:41.988Z,3.47
2022-08-04T06:40:30.633Z,3.08
2022-08-04T06:43:01.083Z,3.45
2022-08-04T06:47:55.717Z,3.40
2022-08-04T06:51:25.476Z,3.45
2022-08-04T06:53:10.136Z,3.72
2022-08-04T06:55:38.257Z,3.67
2022-08-04T06:58:06.497Z,3.60
2022-08-04T07:00:35.315Z,4.87
2022-08-04T07:03:03.800Z,2.28
2022-08-04T07:05:31.531Z,2.50
2022-08-04T07:07:59.220Z,2.70
2022-08-04T07:10:30.606Z,3.03
2022-08-04T07:12:58.821Z,3.03
2022-08-04T07:15:27.064Z,3.90
2022-08-04T07:17:55.274Z,2.43
2022-08-04T07:20:35.200Z,3.20
2022-08-04T07:23:06.447Z,2.90
2022-08-04T07:26:11.980Z,2.78
2022-08-04T07:28:27.113Z,3.03
2022-08-04T07:30:55.657Z,3.22
2022-08-04T07:33:24.617Z,2.60
2022-08-04T07:38:50.655Z,2.67
2022-08-04T07:41:39.509Z,3.53
2022-08-04T07:44:07.754Z,2.63
2022-08-04T07:46:35.296Z,3.70
2022-08-04T07:49:02.193Z,3.40
2022-08-04T07:51:35.493Z,4.12
2022-08-04T07:54:06.319Z,4.30
2022-08-04T07:56:39.433Z,4.40
2022-08-04T07:59:06.954Z,4.22
2022-08-04T08:01:37.254Z,4.32
2022-08-04T08:04:09.921Z,4.60
2022-08-04T08:06:42.720Z,5.00
2022-08-04T08:09:14.533Z,4.20
2022-08-04T08:12:37.958Z,4.28
2022-08-04T08:14:32.075Z,4.47
2022-08-04T08:17:02.909Z,4.70
2022-08-04T08:19:31.725Z,4.62
2022-08-04T08:22:00.963Z,4.07
2022-08-04T08:24:35.470Z,4.40
2022-08-04T08:27:06.089Z,4.60
2022-08-04T08:29:35.191Z,4.40
2022-08-04T08:32:08.172Z,4.60
2022-08-04T08:34:37.477Z,4.10
2022-08-04T08:39:54.469Z,4.28
2022-08-04T08:42:40.999Z,3.95
2022-08-04T08:45:17.789Z,4.70
2022-08-04T08:48:06.174Z,4.35
2022-08-04T08:50:48.974Z,4.25
2022-08-04T08:53:45.296Z,4.45
2022-08-04T08:56:31.392Z,5.78
2022-08-04T08:59:27.717Z,4.25
2022-08-04T09:02:26.596Z,4.75
2022-08-04T09:05:19.616Z,4.40
2022-08-04T09:08:09.713Z,3.97
2022-08-04T09:10:48.096Z,4.80
2022-08-04T09:13:21.510Z,4.85
2022-08-04T09:15:52.477Z,5.00
2022-08-04T09:18:27.065Z,4.22
2022-08-04T09:21:06.537Z,4.93
2022-08-04T09:23:58.095Z,4.28
2022-08-04T09:26:35.020Z,4.55
2022-08-04T09:29:29.626Z,4.80
2022-08-04T09:32:39.307Z,5.60
2022-08-04T09:35:34.125Z,4.82
2022-08-04T09:38:06.214Z,4.65
2022-08-04T09:41:26.893Z,5.12
2022-08-04T09:44:50.584Z,4.62
2022-08-04T09:47:39.797Z,4.87
2022-08-04T09:50:30.157Z,4.65
2022-08-04T09:53:03.346Z,5.50
2022-08-04T09:55:54.100Z,5.10
2022-08-04T09:58:40.499Z,4.37
2022-08-04T10:01:11.880Z,4.22
2022-08-04T10:03:41.741Z,4.10
2022-08-04T10:06:26.907Z,4.28
2022-08-04T10:09:18.695Z,4.75
2022-08-04T10:12:09.499Z,4.68
2022-08-04T10:15:04.779Z,4.22
2022-08-04T10:17:52.182Z,4.62
2022-08-04T10:20:55.532Z,3.33
2022-08-04T10:23:55.287Z,3.65
2022-08-04T10:26:57.314Z,4.12
2022-08-04T10:29:31.336Z,3.28
2022-08-04T10:32:05.141Z,4.25
2022-08-04T10:34:39.938Z,3.12
2022-08-04T10:37:13.873Z,3.08
2022-08-04T10:40:24.215Z,3.45
2022-08-04T10:43:00.614Z,3.17
2022-08-04T10:45:35.190Z,4.75
2022-08-04T10:48:34.310Z,3.03
2022-08-04T10:51:04.854Z,3.12
2022-08-04T10:53:35.036Z,2.85
2022-08-04T10:56:09.880Z,3.33
2022-08-04T10:58:47.836Z,3.12
2022-08-04T11:01:50.982Z,3.10
2022-08-04T11:04:53.786Z,3.87
2022-08-04T11:07:22.369Z,3.20
2022-08-04T11:09:49.687Z,3.42
2022-08-04T11:12:25.699Z,3.10
2022-08-04T11:15:01.671Z,3.50
2022-08-04T11:17:36.007Z,3.05
2022-08-04T11:20:41.388Z,3.40
2022-08-04T11:23:14.295Z,3.72
2022-08-04T11:25:57.524Z,3.17
2022-08-04T11:28:46.220Z,3.40
2022-08-04T11:31:21.657Z,3.08
2022-08-04T11:34:11.743Z,3.22
2022-08-04T11:36:46.936Z,3.12
2022-08-04T11:39:29.660Z,3.33
2022-08-04T11:42:11.769Z,2.85
2022-08-04T11:44:44.534Z,3.58
2022-08-04T11:47:33.239Z,3.00
2022-08-04T11:50:13.182Z,2.92
2022-08-04T11:52:43.103Z,2.75
2022-08-04T11:55:14.216Z,3.33
2022-08-04T11:57:41.189Z,2.50
2022-08-04T12:00:12.904Z,3.83
2022-08-04T12:02:55.029Z,3.20
2022-08-04T12:05:37.181Z,2.42
2022-08-04T12:08:23.015Z,3.12
2022-08-04T12:11:11.637Z,3.20
2022-08-04T12:13:58.716Z,3.12
2022-08-04T12:16:37.823Z,3.78
2022-08-04T12:19:22.106Z,3.03
2022-08-04T12:22:00.357Z,3.67
2022-08-04T12:24:53.428Z,4.12
2022-08-04T12:28:01.467Z,3.67
2022-08-04T12:33:41.376Z,3.60
2022-08-04T12:36:22.268Z,3.90
2022-08-04T12:38:59.381Z,3.60
2022-08-04T12:41:33.536Z,3.47
2022-08-04T12:44:10.877Z,3.92
2022-08-04T12:47:27.235Z,4.05
2022-08-04T12:49:59.010Z,3.67
2022-08-04T12:52:51.665Z,3.50
2022-08-04T12:55:15.742Z,3.95
2022-08-04T12:57:44.018Z,4.00
2022-08-04T13:02:46.436Z,3.73
2022-08-04T13:05:16.880Z,3.80
2022-08-04T13:07:51.156Z,3.65
2022-08-04T13:10:21.182Z,3.58
2022-08-04T13:12:59.498Z,3.55
2022-08-04T13:15:28.671Z,3.50
2022-08-04T13:17:56.338Z,3.58
2022-08-04T13:20:35.947Z,3.60
2022-08-04T13:23:21.483Z,2.97
2022-08-04T13:26:42.334Z,4.30
2022-08-04T13:28:47.137Z,3.45
2022-08-04T13:31:20.228Z,3.67
2022-08-04T13:33:51.626Z,3.10
2022-08-04T13:36:20.039Z,3.50
2022-08-04T13:38:52.164Z,3.50
2022-08-04T13:41:20.547Z,3.58
2022-08-04T13:46:50.444Z,3.25
2022-08-04T13:49:42.964Z,3.20
2022-08-04T13:52:11.231Z,3.15
2022-08-04T13:54:43.737Z,3.25
2022-08-04T13:57:19.596Z,3.33
2022-08-04T13:59:52.547Z,3.53
2022-08-04T14:02:34.808Z,3.33
2022-08-04T14:05:26.810Z,3.50
2022-08-04T14:08:00.855Z,3.45
2022-08-04T14:10:27.895Z,3.03
2022-08-04T14:12:55.848Z,3.12
2022-08-04T14:15:54.733Z,3.80
2022-08-04T14:21:11.638Z,3.20
2022-08-04T14:23:47.182Z,3.28
2022-08-04T14:26:34.054Z,3.40
2022-08-04T14:29:35.955Z,3.72
2022-08-04T14:32:12.669Z,3.62
2022-08-04T14:34:44.747Z,3.45
2022-08-04T14:37:20.592Z,2.95
2022-08-04T14:40:17.853Z,3.30
2022-08-04T14:42:55.377Z,3.35
2022-08-04T14:45:32.013Z,2.62
2022-08-04T14:48:00.177Z,3.65
2022-08-04T14:50:39.026Z,3.50
2022-08-04T14:53:11.038Z,3.60
2022-08-04T14:55:39.989Z,2.70
2022-08-04T14:58:36.168Z,3.60
2022-08-04T15:00:58.073Z,3.45
2022-08-04T15:03:25.477Z,3.33
2022-08-04T15:06:00.093Z,3.50
2022-08-04T15:08:31.965Z,3.45
2022-08-04T15:11:03.569Z,3.75
2022-08-04T15:13:32.598Z,3.30
2022-08-04T15:16:08.081Z,3.50
2022-08-04T15:18:37.385Z,3.30
2022-08-04T15:21:06.039Z,4.05
2022-08-04T15:23:39.216Z,3.15
2022-08-04T15:26:10.707Z,3.58
2022-08-04T15:28:40.026Z,3.50
2022-08-04T15:32:01.772Z,3.62
2022-08-04T15:33:57.241Z,3.78
2022-08-04T15:36:57.192Z,3.20
2022-08-04T15:39:46.245Z,3.15
2022-08-04T15:42:24.806Z,4.43
2022-08-04T15:44:51.794Z,3.83
2022-08-04T15:47:18.980Z,3.60
2022-08-04T15:49:45.957Z,3.40
2022-08-04T15:52:18.899Z,3.28
2022-08-04T15:54:52.033Z,3.30
2022-08-04T15:57:57.549Z,3.80
2022-08-04T16:00:24.518Z,3.50
2022-08-04T16:02:51.824Z,3.65
2022-08-04T16:05:21.397Z,4.15
2022-08-04T16:07:59.088Z,3.75
2022-08-04T16:10:32.826Z,3.45
2022-08-04T16:13:08.370Z,4.12
2022-08-04T16:15:46.961Z,3.47
2022-08-04T16:18:39.747Z,3.60
2022-08-04T16:21:22.739Z,4.95
2022-08-04T16:23:56.904Z,5.53
2022-08-04T16:26:45.797Z,5.22
2022-08-04T16:29:41.678Z,4.00
2022-08-04T16:32:09.567Z,3.35
2022-08-04T16:34:58.971Z,4.00
2022-08-04T16:37:31.497Z,3.25
2022-08-04T16:40:34.570Z,3.72
2022-08-04T16:43:13.565Z,2.70
2022-08-04T16:45:51.495Z,3.15
2022-08-04T16:48:21.057Z,3.70
2022-08-04T16:51:14.606Z,3.92
2022-08-04T16:54:02.700Z,3.80
2022-08-04T16:56:34.173Z,4.32
2022-08-04T16:59:09.957Z,3.28
2022-08-04T17:01:38.452Z,3.40
2022-08-04T17:04:06.704Z,3.65
2022-08-04T17:06:38.277Z,3.70
2022-08-04T17:09:11.461Z,3.70
2022-08-04T17:11:38.417Z,3.72
2022-08-04T17:14:06.490Z,3.30
2022-08-04T17:16:36.495Z,3.50
2022-08-04T17:19:05.317Z,3.95
2022-08-04T17:21:34.819Z,3.50
2022-08-04T17:24:13.322Z,3.62
2022-08-04T17:26:53.946Z,3.40
2022-08-04T17:29:44.598Z,3.60
2022-08-04T17:32:21.926Z,3.70
2022-08-04T17:34:51.462Z,3.75
2022-08-04T17:40:18.479Z,4.75
2022-08-04T17:44:04.223Z,4.60
2022-08-04T17:46:29.073Z,3.83
2022-08-04T17:49:17.103Z,3.40
2022-08-04T17:52:04.342Z,3.83
2022-08-04T17:54:38.717Z,3.10
2022-08-04T17:57:21.797Z,2.92
2022-08-04T17:59:59.306Z,4.22
2022-08-04T18:02:32.482Z,3.85
2022-08-04T18:05:07.067Z,2.78
2022-08-04T18:08:45.869Z,3.80
2022-08-04T18:10:57.072Z,3.97
2022-08-04T18:13:28.582Z,4.65
2022-08-04T18:16:04.124Z,3.78
2022-08-04T18:18:31.109Z,3.30
2022-08-04T18:20:59.525Z,3.62
2022-08-04T18:26:13.764Z,4.05
2022-08-04T18:28:41.395Z,3.97
2022-08-04T18:31:08.435Z,5.15
2022-08-04T18:33:39.803Z,4.80
2022-08-04T18:36:33.181Z,4.50
2022-08-04T18:39:13.419Z,4.00
2022-08-04T18:42:00.959Z,4.97
2022-08-04T18:44:51.891Z,4.95
2022-08-04T18:47:23.557Z,3.83
2022-08-04T18:50:58.552Z,3.60
2022-08-04T18:52:45.323Z,3.40
2022-08-04T18:55:33.991Z,3.75
2022-08-04T18:58:01.491Z,3.80
2022-08-04T19:00:28.847Z,3.75
2022-08-04T19:02:56.203Z,4.28
2022-08-04T19:05:24.396Z,3.22
2022-08-04T19:08:33.651Z,3.97
2022-08-04T19:10:54.176Z,4.30
2022-08-04T19:13:27.579Z,3.58
2022-08-04T19:15:54.835Z,3.25
2022-08-04T19:18:25.887Z,3.87
2022-08-04T19:20:55.391Z,4.10
2022-08-04T19:24:27.959Z,3.87
2022-08-04T19:28:57.009Z,3.53
2022-08-04T19:31:34.097Z,4.15
2022-08-04T19:34:05.074Z,3.80
2022-08-04T19:36:34.515Z,4.35
2022-08-04T19:39:04.672Z,3.90
2022-08-04T19:42:04.696Z,4.45
2022-08-04T19:44:25.089Z,3.80
2022-08-04T19:46:56.896Z,3.78
2022-08-04T19:50:05.026Z,3.80
2022-08-04T19:52:14.946Z,4.50
2022-08-04T19:55:01.242Z,3.87
2022-08-04T19:57:41.375Z,4.80
2022-08-04T20:00:10.166Z,4.50
2022-08-04T20:02:37.596Z,4.40
2022-08-04T20:07:52.281Z,4.93
2022-08-04T20:10:23.853Z,5.90
2022-08-04T20:12:55.592Z,6.07
2022-08-04T20:15:22.757Z,5.37
2022-08-04T20:18:14.339Z,4.80
2022-08-04T20:20:36.970Z,4.22
2022-08-04T20:23:07.349Z,3.92
2022-08-04T20:25:38.850Z,4.32
2022-08-04T20:28:07.427Z,3.78
2022-08-04T20:30:34.247Z,4.55
2022-08-04T20:33:01.696Z,4.60
2022-08-04T20:35:32.656Z,4.10
2022-08-04T20:38:33.692Z,4.12
2022-08-04T20:41:01.485Z,4.50
2022-08-04T20:43:28.409Z,4.85
2022-08-04T20:45:59.261Z,5.00
2022-08-04T20:48:33.615Z,5.10
2022-08-04T20:51:00.818Z,4.68
2022-08-04T20:56:19.179Z,4.60
2022-08-04T20:58:58.227Z,5.20
2022-08-04T21:01:29.593Z,4.57
2022-08-04T21:04:28.011Z,4.47
2022-08-04T21:06:57.439Z,4.50
2022-08-04T21:09:37.262Z,4.72
2022-08-04T21:12:07.159Z,4.90
2022-08-04T21:14:34.466Z,4.87
2022-08-04T21:19:50.314Z,4.82
2022-08-04T21:22:29.821Z,4.07
2022-08-04T21:25:00.388Z,4.55
2022-08-04T21:27:28.750Z,4.85
2022-08-04T21:29:55.527Z,5.12
2022-08-04T21:32:27.245Z,4.68
2022-08-04T21:34:55.117Z,4.95
2022-08-04T21:37:21.929Z,5.28
2022-08-04T21:39:59.077Z,5.15
2022-08-04T21:42:28.426Z,4.20
2022-08-04T21:44:58.179Z,4.10
2022-08-04T21:47:25.201Z,4.20
2022-08-04T21:49:56.788Z,4.57
2022-08-04T21:52:24.845Z,3.97
2022-08-04T21:54:54.487Z,4.75
2022-08-04T21:57:24.839Z,4.55
2022-08-04T21:59:52.315Z,4.35
2022-08-04T22:02:19.528Z,4.60
2022-08-04T22:04:48.458Z,4.85
2022-08-04T22:07:16.546Z,5.25
2022-08-04T22:10:02.440Z,4.90
2022-08-04T22:12:30.225Z,4.65
2022-08-04T22:14:59.592Z,4.43
2022-08-04T22:17:35.057Z,4.62
2022-08-04T22:20:03.037Z,4.32
2022-08-04T22:22:33.530Z,4.78
2022-08-04T22:25:13.102Z,4.60
2022-08-04T22:28:00.741Z,4.60
2022-08-04T22:30:36.661Z,4.93
2022-08-04T22:33:08.189Z,4.72
2022-08-04T22:35:49.045Z,4.37
2022-08-04T22:38:24.062Z,4.78
2022-08-04T22:41:01.378Z,4.15
2022-08-04T22:43:33.486Z,4.53
2022-08-04T22:46:03.874Z,4.53
2022-08-04T22:48:37.668Z,4.35
2022-08-04T22:51:07.500Z,4.47
2022-08-04T22:53:35.531Z,4.28
2022-08-04T22:56:09.832Z,4.72
2022-08-04T22:58:45.060Z,4.62
2022-08-04T23:01:14.964Z,5.05
2022-08-04T23:03:55.239Z,4.50
2022-08-04T23:06:24.776Z,4.62
2022-08-04T23:08:52.758Z,4.95
2022-08-04T23:11:19.688Z,5.57
2022-08-04T23:13:47.241Z,4.68
2022-08-04T23:16:15.857Z,4.50
2022-08-04T23:18:45.201Z,4.18
2022-08-04T23:21:16.716Z,4.15
2022-08-04T23:23:45.548Z,4.53
2022-08-04T23:26:27.748Z,4.72
2022-08-04T23:28:56.052Z,4.45
2022-08-04T23:31:23.486Z,4.55
2022-08-04T23:33:52.013Z,4.00
2022-08-04T23:36:29.637Z,4.37
2022-08-04T23:39:03.920Z,4.80
2022-08-04T23:41:51.027Z,5.40
2022-08-04T23:44:24.967Z,4.10
2022-08-04T23:47:03.677Z,4.72
2022-08-04T23:49:43.709Z,4.53
2022-08-04T23:52:23.467Z,4.70
2022-08-04T23:54:54.799Z,4.87
2022-08-04T23:57:22.226Z,6.68
2022-08-04T23:59:54.944Z,4.72
